Time,TemperatureF,DewpointF,PressureIn,WindDirection,WindDirectionDegrees,WindSpeedMPH,WindSpeedGustMPH,Humidity,HourlyPrecipIn,Conditions,Clouds,dailyrainin,SoftwareType,DateUTC
2013-07-03 00:00:00,72.8,71.0,30.15,WSW,258,0.0,0.0,94,0.01,,-RA,0.01,VWS V14.01,2013-07-03 04:00:00,
2013-07-03 00:02:00,72.8,71.0,30.15,WSW,258,0.0,0.0,94,0.01,,-RA,0.00,VWS V14.01,2013-07-03 04:02:00,
2013-07-03 00:14:00,72.7,70.9,30.15,North,0,0.0,0.0,94,0.01,,-RA,0.00,VWS V14.01,2013-07-03 04:14:00,
2013-07-03 00:19:00,72.7,70.9,30.15,North,0,0.0,0.0,94,0.01,,-RA,0.00,VWS V14.01,2013-07-03 04:19:00,
2013-07-03 00:24:00,72.6,70.8,30.15,North,0,0.0,0.0,94,0.01,,-RA,0.00,VWS V14.01,2013-07-03 04:24:00,
2013-07-03 00:29:00,72.5,70.7,30.15,North,0,0.0,0.0,94,0.01,,-RA,0.00,VWS V14.01,2013-07-03 04:29:00,
2013-07-03 00:34:00,72.5,71.0,30.15,North,0,0.0,0.0,95,0.01,,-RA,0.00,VWS V14.01,2013-07-03 04:34:00,
2013-07-03 00:39:00,72.4,70.9,30.15,North,0,0.0,0.0,95,0.01,,-RA,0.00,VWS V14.01,2013-07-03 04:39:00,
2013-07-03 00:44:00,72.4,70.9,30.15,North,0,0.0,0.0,95,0.01,,-RA,0.00,VWS V14.01,2013-07-03 04:44:00,
2013-07-03 00:49:00,72.3,70.8,30.15,North,0,0.0,0.0,95,0.01,,-RA,0.00,VWS V14.01,2013-07-03 04:49:00,
2013-07-03 00:54:00,72.2,70.7,30.15,North,0,0.0,0.0,95,0.01,,-RA,0.00,VWS V14.01,2013-07-03 04:54:00,
2013-07-03 00:59:00,72.2,70.7,30.15,North,0,0.0,0.0,95,0.01,,-RA,0.00,VWS V14.01,2013-07-03 04:59:00,
2013-07-03 01:09:00,72.1,70.3,30.15,North,0,0.0,0.0,94,0.00,,CLR,0.00,VWS V14.01,2013-07-03 05:09:00,
2013-07-03 01:14:00,72.1,70.6,30.15,North,0,0.0,0.0,95,0.00,,CLR,0.00,VWS V14.01,2013-07-03 05:14:00,
2013-07-03 01:19:00,72.0,70.5,30.15,North,0,0.0,0.0,95,0.00,,CLR,0.00,VWS V14.01,2013-07-03 05:19:00,
2013-07-03 01:24:00,72.0,70.5,30.16,North,0,0.0,0.0,95,0.00,,CLR,0.00,VWS V14.01,2013-07-03 05:24:00,
2013-07-03 01:29:00,71.9,70.4,30.16,North,0,0.0,0.0,95,0.00,,CLR,0.00,VWS V14.01,2013-07-03 05:29:00,
2013-07-03 01:39:00,71.9,70.4,30.16,North,0,0.0,0.0,95,0.00,,CLR,0.00,VWS V14.01,2013-07-03 05:39:00,
2013-07-03 01:44:00,72.0,70.5,30.16,North,0,0.0,0.0,95,0.00,,CLR,0.00,VWS V14.01,2013-07-03 05:44:00,
2013-07-03 01:49:00,72.0,70.5,30.15,North,0,0.0,0.0,95,0.00,,CLR,0.00,VWS V14.01,2013-07-03 05:49:00,
2013-07-03 01:54:00,72.0,70.5,30.15,North,0,0.0,0.0,95,0.00,,CLR,0.00,VWS V14.01,2013-07-03 05:54:00,
2013-07-03 01:59:00,72.0,70.5,30.15,North,0,0.0,0.0,95,0.00,,CLR,0.00,VWS V14.01,2013-07-03 05:59:00,
2013-07-03 02:09:00,72.0,70.5,30.15,North,0,0.0,0.0,95,0.00,,,0.00,VWS V14.01,2013-07-03 06:09:00,
2013-07-03 02:14:00,72.0,70.5,30.15,North,0,0.0,0.0,95,0.00,,,0.00,VWS V14.01,2013-07-03 06:14:00,
2013-07-03 02:24:00,71.9,70.4,30.15,North,0,0.0,0.0,95,0.00,,,0.00,VWS V14.01,2013-07-03 06:24:00,
2013-07-03 02:29:00,71.9,70.7,30.15,North,0,0.0,0.0,96,0.00,,,0.00,VWS V14.01,2013-07-03 06:29:00,
2013-07-03 02:34:00,71.8,70.6,30.15,North,0,0.0,0.0,96,0.00,,,0.00,VWS V14.01,2013-07-03 06:34:00,
2013-07-03 02:39:00,71.8,70.6,30.15,North,0,0.0,0.0,96,0.00,,,0.00,VWS V14.01,2013-07-03 06:39:00,
2013-07-03 02:44:00,71.8,70.6,30.15,North,0,0.0,0.0,96,0.00,,,0.00,VWS V14.01,2013-07-03 06:44:00,
2013-07-03 02:49:00,71.8,70.6,30.15,North,0,0.0,0.0,96,0.00,,,0.00,VWS V14.01,2013-07-03 06:49:00,
2013-07-03 02:54:00,71.7,70.5,30.15,North,0,0.0,0.0,96,0.00,,,0.00,VWS V14.01,2013-07-03 06:54:00,
2013-07-03 03:05:00,71.6,70.4,30.15,North,0,0.0,0.0,96,0.00,,,0.00,VWS V14.01,2013-07-03 07:05:00,
2013-07-03 03:10:00,71.6,70.4,30.15,North,0,0.0,0.0,96,0.00,,,0.00,VWS V14.01,2013-07-03 07:10:00,
2013-07-03 03:15:00,71.6,70.4,30.15,North,0,0.0,0.0,96,0.00,,,0.00,VWS V14.01,2013-07-03 07:15:00,
2013-07-03 03:20:00,71.6,70.4,30.15,North,0,0.0,0.0,96,0.00,,,0.00,VWS V14.01,2013-07-03 07:20:00,
2013-07-03 03:25:00,71.5,70.3,30.15,North,0,0.0,0.0,96,0.00,,,0.00,VWS V14.01,2013-07-03 07:25:00,
2013-07-03 03:30:00,71.5,70.3,30.15,North,0,0.0,0.0,96,0.00,,,0.00,VWS V14.01,2013-07-03 07:30:00,
2013-07-03 03:35:00,71.5,70.3,30.15,North,0,0.0,0.0,96,0.00,,,0.00,VWS V14.01,2013-07-03 07:35:00,
2013-07-03 03:45:00,71.4,70.2,30.15,North,0,0.0,0.0,96,0.00,,,0.00,VWS V14.01,2013-07-03 07:45:00,
2013-07-03 03:50:00,71.3,69.8,30.15,North,0,0.0,0.0,95,0.00,,,0.00,VWS V14.01,2013-07-03 07:50:00,
2013-07-03 03:55:00,71.3,69.8,30.15,North,0,0.0,0.0,95,0.00,,,0.00,VWS V14.01,2013-07-03 07:55:00,
2013-07-03 03:59:00,71.3,70.1,30.16,North,0,0.0,0.0,96,0.00,,,0.00,VWS V14.01,2013-07-03 07:59:00,
2013-07-03 04:05:00,71.3,70.1,30.16,North,0,0.0,0.0,96,0.00,,,0.00,VWS V14.01,2013-07-03 08:05:00,
2013-07-03 04:10:00,71.3,70.1,30.16,North,0,0.0,0.0,96,0.00,,,0.00,VWS V14.01,2013-07-03 08:10:00,
2013-07-03 04:15:00,71.3,70.1,30.16,North,0,0.0,0.0,96,0.00,,,0.00,VWS V14.01,2013-07-03 08:15:00,
2013-07-03 04:20:00,71.3,70.1,30.16,North,0,0.0,0.0,96,0.00,,,0.00,VWS V14.01,2013-07-03 08:20:00,
2013-07-03 04:25:00,71.4,70.2,30.16,North,0,0.0,0.0,96,0.00,,,0.00,VWS V14.01,2013-07-03 08:25:00,
2013-07-03 04:29:00,71.4,70.2,30.16,North,0,0.0,0.0,96,0.00,,,0.00,VWS V14.01,2013-07-03 08:29:00,
2013-07-03 04:35:00,71.5,70.3,30.16,North,0,0.0,0.0,96,0.00,,,0.00,VWS V14.01,2013-07-03 08:35:00,
2013-07-03 04:40:00,71.5,70.3,30.16,North,0,0.0,0.0,96,0.00,,,0.00,VWS V14.01,2013-07-03 08:40:00,
2013-07-03 04:45:00,71.5,70.3,30.16,North,0,0.0,0.0,96,0.00,,,0.00,VWS V14.01,2013-07-03 08:45:00,
2013-07-03 04:59:00,71.5,70.3,30.17,North,0,0.0,0.0,96,0.00,,,0.00,VWS V14.01,2013-07-03 08:59:00,
2013-07-03 05:06:00,71.5,70.3,30.17,North,0,0.0,0.0,96,0.00,,,0.00,VWS V14.01,2013-07-03 09:06:00,
2013-07-03 05:11:00,71.5,70.3,30.17,North,0,0.0,0.0,96,0.00,,,0.00,VWS V14.01,2013-07-03 09:11:00,
2013-07-03 05:16:00,71.5,70.3,30.17,North,0,0.0,0.0,96,0.00,,,0.00,VWS V14.01,2013-07-03 09:16:00,
2013-07-03 05:21:00,71.4,70.2,30.17,North,0,0.0,0.0,96,0.00,,,0.00,VWS V14.01,2013-07-03 09:21:00,
2013-07-03 05:26:00,71.4,70.2,30.17,North,0,0.0,0.0,96,0.00,,,0.00,VWS V14.01,2013-07-03 09:26:00,
2013-07-03 05:36:00,71.5,70.3,30.17,North,0,0.0,0.0,96,0.00,,,0.00,VWS V14.01,2013-07-03 09:36:00,
2013-07-03 05:41:00,71.5,70.3,30.17,North,0,0.0,0.0,96,0.00,,,0.00,VWS V14.01,2013-07-03 09:41:00,
2013-07-03 05:51:00,71.5,70.3,30.18,North,0,0.0,0.0,96,0.00,,,0.00,VWS V14.01,2013-07-03 09:51:00,
2013-07-03 05:59:00,71.5,70.3,30.18,North,0,0.0,0.0,96,0.00,,,0.00,VWS V14.01,2013-07-03 09:59:00,
2013-07-03 06:06:00,71.5,70.3,30.18,North,0,0.0,0.0,96,0.00,,,0.00,VWS V14.01,2013-07-03 10:06:00,
2013-07-03 06:11:00,71.6,70.4,30.18,North,0,0.0,0.0,96,0.00,,,0.00,VWS V14.01,2013-07-03 10:11:00,
2013-07-03 06:16:00,71.6,70.4,30.18,North,0,0.0,0.0,96,0.00,,,0.00,VWS V14.01,2013-07-03 10:16:00,
2013-07-03 06:21:00,71.6,70.4,30.18,North,0,0.0,0.0,96,0.00,,,0.00,VWS V14.01,2013-07-03 10:21:00,
2013-07-03 06:26:00,71.6,70.4,30.18,North,0,0.0,0.0,96,0.00,,,0.00,VWS V14.01,2013-07-03 10:26:00,
2013-07-03 06:37:00,71.7,70.5,30.18,North,0,0.0,0.0,96,0.00,,,0.00,VWS V14.01,2013-07-03 10:37:00,
2013-07-03 06:42:00,71.7,70.5,30.19,North,0,0.0,0.0,96,0.00,,,0.00,VWS V14.01,2013-07-03 10:42:00,
2013-07-03 06:52:00,71.8,70.6,30.19,North,0,0.0,0.0,96,0.00,,,0.00,VWS V14.01,2013-07-03 10:52:00,
2013-07-03 06:57:00,71.8,70.6,30.19,North,0,0.0,0.0,96,0.00,,,0.00,VWS V14.01,2013-07-03 10:57:00,
2013-07-03 06:59:00,71.8,70.6,30.19,North,0,0.0,0.0,96,0.00,,,0.00,VWS V14.01,2013-07-03 10:59:00,
2013-07-03 07:07:00,71.8,70.6,30.19,SW,223,3.0,4.0,96,0.00,,CLR,0.00,VWS V14.01,2013-07-03 11:07:00,
2013-07-03 07:12:00,71.8,70.6,30.19,WSW,240,3.0,4.0,96,0.00,,CLR,0.00,VWS V14.01,2013-07-03 11:12:00,
2013-07-03 07:17:00,71.9,70.7,30.19,WSW,240,3.0,4.0,96,0.00,,CLR,0.00,VWS V14.01,2013-07-03 11:17:00,
2013-07-03 07:27:00,72.0,70.5,30.19,WSW,240,3.0,4.0,95,0.00,,CLR,0.00,VWS V14.01,2013-07-03 11:27:00,
2013-07-03 07:29:00,72.1,70.6,30.20,WSW,240,3.0,4.0,95,0.00,,CLR,0.00,VWS V14.01,2013-07-03 11:29:00,
2013-07-03 07:42:00,72.3,70.8,30.20,WSW,240,3.0,3.0,95,0.00,,CLR,0.00,VWS V14.01,2013-07-03 11:42:00,
2013-07-03 07:47:00,72.4,70.9,30.20,WSW,240,3.0,3.0,95,0.00,,CLR,0.00,VWS V14.01,2013-07-03 11:47:00,
2013-07-03 07:59:00,72.8,71.3,30.20,WSW,240,3.0,3.0,95,0.00,,CLR,0.00,VWS V14.01,2013-07-03 11:59:00,
2013-07-03 08:08:00,73.1,71.6,30.20,WSW,240,3.0,3.0,95,0.00,,CLR,0.00,VWS V14.01,2013-07-03 12:08:00,
2013-07-03 08:13:00,73.2,71.4,30.21,WSW,240,3.0,3.0,94,0.00,,CLR,0.00,VWS V14.01,2013-07-03 12:13:00,
2013-07-03 08:18:00,73.4,71.6,30.21,WSW,240,3.0,3.0,94,0.00,,CLR,0.00,VWS V14.01,2013-07-03 12:18:00,
2013-07-03 08:28:00,73.6,71.5,30.20,WSW,240,3.0,3.0,93,0.00,,CLR,0.00,VWS V14.01,2013-07-03 12:28:00,
2013-07-03 08:38:00,73.8,71.3,30.20,WSW,240,3.0,3.0,92,0.00,,CLR,0.00,VWS V14.01,2013-07-03 12:38:00,
2013-07-03 08:43:00,74.0,71.5,30.20,WSW,240,3.0,3.0,92,0.00,,CLR,0.00,VWS V14.01,2013-07-03 12:43:00,
2013-07-03 08:48:00,74.1,71.6,30.20,WSW,240,3.0,3.0,92,0.00,,CLR,0.00,VWS V14.01,2013-07-03 12:48:00,
2013-07-03 08:53:00,74.2,71.7,30.20,WSW,240,3.0,3.0,92,0.00,,CLR,0.00,VWS V14.01,2013-07-03 12:53:00,
2013-07-03 08:58:00,74.3,71.5,30.20,WSW,240,3.0,3.0,91,0.00,,CLR,0.00,VWS V14.01,2013-07-03 12:58:00,
2013-07-03 09:03:00,74.3,71.8,30.20,WSW,240,3.0,3.0,92,0.00,,CLR,0.00,VWS V14.01,2013-07-03 13:03:00,
2013-07-03 09:08:00,74.5,71.7,30.21,WSW,240,3.0,3.0,91,0.00,,CLR,0.00,VWS V14.01,2013-07-03 13:08:00,
2013-07-03 09:19:00,74.7,71.9,30.20,WSW,240,3.0,3.0,91,0.00,,CLR,0.00,VWS V14.01,2013-07-03 13:19:00,
2013-07-03 09:24:00,74.8,72.0,30.20,WSW,240,3.0,3.0,91,0.00,,CLR,0.00,VWS V14.01,2013-07-03 13:24:00,
2013-07-03 09:29:00,74.9,72.1,30.20,WSW,240,3.0,3.0,91,0.00,,CLR,0.00,VWS V14.01,2013-07-03 13:29:00,
2013-07-03 09:34:00,75.1,72.3,30.20,WSW,240,3.0,3.0,91,0.00,,CLR,0.00,VWS V14.01,2013-07-03 13:34:00,
2013-07-03 09:39:00,75.3,72.5,30.20,WSW,240,3.0,3.0,91,0.00,,CLR,0.00,VWS V14.01,2013-07-03 13:39:00,
2013-07-03 09:44:00,75.5,72.4,30.20,WSW,240,3.0,3.0,90,0.00,,CLR,0.00,VWS V14.01,2013-07-03 13:44:00,
2013-07-03 09:49:00,75.6,72.5,30.20,WSW,240,3.0,3.0,90,0.00,,CLR,0.00,VWS V14.01,2013-07-03 13:49:00,
2013-07-03 09:54:00,76.1,73.0,30.20,WSW,240,3.0,3.0,90,0.00,,CLR,0.00,VWS V14.01,2013-07-03 13:54:00,
2013-07-03 09:59:00,76.9,73.4,30.20,WSW,240,3.0,3.0,89,0.00,,CLR,0.00,VWS V14.01,2013-07-03 13:59:00,
2013-07-03 10:04:00,77.2,73.4,30.20,WSW,240,3.0,3.0,88,0.00,,CLR,0.00,VWS V14.01,2013-07-03 14:04:00,
2013-07-03 10:09:00,77.5,73.3,30.20,WSW,240,3.0,3.0,87,0.00,,CLR,0.00,VWS V14.01,2013-07-03 14:09:00,
2013-07-03 10:14:00,77.7,73.5,30.20,WSW,240,3.0,3.0,87,0.00,,CLR,0.00,VWS V14.01,2013-07-03 14:14:00,
2013-07-03 10:29:00,78.5,74.0,30.20,WSW,256,7.0,7.0,86,0.00,,CLR,0.00,VWS V14.01,2013-07-03 14:29:00,
2013-07-03 10:44:00,80.2,74.6,30.20,WSW,256,7.0,7.0,83,0.00,,CLR,0.00,VWS V14.01,2013-07-03 14:44:00,
2013-07-03 10:49:00,80.3,75.0,30.20,WSW,256,7.0,7.0,84,0.00,,CLR,0.00,VWS V14.01,2013-07-03 14:49:00,
2013-07-03 10:54:00,80.3,74.3,30.20,WSW,256,7.0,7.0,82,0.00,,CLR,0.00,VWS V14.01,2013-07-03 14:54:00,
2013-07-03 10:59:00,80.7,74.7,30.20,WSW,256,7.0,7.0,82,0.00,,CLR,0.00,VWS V14.01,2013-07-03 14:59:00,
2013-07-03 11:10:00,80.9,74.5,30.20,WSW,256,7.0,7.0,81,0.00,,CLR,0.00,VWS V14.01,2013-07-03 15:10:00,
2013-07-03 11:15:00,81.1,74.7,30.20,WSW,256,7.0,7.0,81,0.00,,CLR,0.00,VWS V14.01,2013-07-03 15:15:00,
2013-07-03 11:25:00,81.6,74.8,30.20,WSW,256,7.0,7.0,80,0.00,,CLR,0.00,VWS V14.01,2013-07-03 15:25:00,
2013-07-03 11:30:00,81.7,74.6,30.21,WSW,256,7.0,7.0,79,0.00,,CLR,0.00,VWS V14.01,2013-07-03 15:30:00,
2013-07-03 11:35:00,81.9,74.8,30.21,WSW,256,7.0,7.0,79,0.00,,CLR,0.00,VWS V14.01,2013-07-03 15:35:00,
2013-07-03 11:45:00,82.5,74.2,30.21,WSW,256,7.0,7.0,76,0.00,,CLR,0.00,VWS V14.01,2013-07-03 15:45:00,
2013-07-03 11:50:00,82.5,73.8,30.20,WSW,256,7.0,7.0,75,0.00,,CLR,0.00,VWS V14.01,2013-07-03 15:50:00,
2013-07-03 11:55:00,82.7,74.4,30.20,WSW,256,7.0,7.0,76,0.00,,CLR,0.00,VWS V14.01,2013-07-03 15:55:00,
2013-07-03 11:59:00,82.7,73.6,30.20,WSW,256,7.0,7.0,74,0.00,,CLR,0.00,VWS V14.01,2013-07-03 15:59:00,
2013-07-03 12:05:00,82.5,74.6,30.20,WSW,256,7.0,7.0,77,0.00,,CLR,0.00,VWS V14.01,2013-07-03 16:05:00,
2013-07-03 12:10:00,82.7,74.8,30.20,WSW,256,7.0,7.0,77,0.00,,CLR,0.00,VWS V14.01,2013-07-03 16:10:00,
2013-07-03 12:20:00,82.6,74.7,30.20,SSW,207,2.0,7.0,77,0.00,,CLR,0.00,VWS V14.01,2013-07-03 16:20:00,
2013-07-03 12:25:00,82.5,74.9,30.20,WSW,254,0.0,7.0,78,0.00,,CLR,0.00,VWS V14.01,2013-07-03 16:25:00,
2013-07-03 12:30:00,82.3,74.8,30.20,SW,228,4.0,4.0,78,0.00,,CLR,0.00,VWS V14.01,2013-07-03 16:30:00,
2013-07-03 12:35:00,81.9,74.4,30.20,North,10,2.0,4.0,78,0.00,,CLR,0.00,VWS V14.01,2013-07-03 16:35:00,
2013-07-03 12:40:00,81.7,74.6,30.20,WSW,246,2.0,4.0,79,0.00,,CLR,0.00,VWS V14.01,2013-07-03 16:40:00,
2013-07-03 12:50:00,81.8,75.4,30.20,SW,221,1.0,4.0,81,0.00,,CLR,0.00,VWS V14.01,2013-07-03 16:50:00,
2013-07-03 13:06:00,83.2,75.6,30.20,West,265,3.0,7.0,78,0.00,,CLR,0.00,VWS V14.01,2013-07-03 17:06:00,
2013-07-03 13:16:00,83.0,75.4,30.20,WSW,237,1.0,10.0,78,0.00,,CLR,0.00,VWS V14.01,2013-07-03 17:16:00,
2013-07-03 13:21:00,83.2,76.0,30.19,WSW,237,1.0,10.0,79,0.00,,CLR,0.00,VWS V14.01,2013-07-03 17:21:00,
2013-07-03 13:26:00,83.4,76.2,30.19,WSW,251,1.0,10.0,79,0.00,,CLR,0.00,VWS V14.01,2013-07-03 17:26:00,
2013-07-03 13:31:00,83.5,75.5,30.19,SSE,159,1.0,2.0,77,0.00,,CLR,0.00,VWS V14.01,2013-07-03 17:31:00,
2013-07-03 13:36:00,83.2,75.2,30.19,SSE,159,1.0,3.0,77,0.00,,CLR,0.00,VWS V14.01,2013-07-03 17:36:00,
2013-07-03 13:41:00,83.0,75.8,30.20,SSW,198,2.0,3.0,79,0.00,,CLR,0.00,VWS V14.01,2013-07-03 17:41:00,
2013-07-03 13:46:00,83.1,75.5,30.20,SSE,156,1.0,3.0,78,0.00,,CLR,0.00,VWS V14.01,2013-07-03 17:46:00,
2013-07-03 13:51:00,82.8,75.6,30.20,SSE,155,1.0,3.0,79,0.00,,CLR,0.00,VWS V14.01,2013-07-03 17:51:00,
2013-07-03 13:56:00,82.9,75.3,30.19,SW,227,3.0,3.0,78,0.00,,CLR,0.00,VWS V14.01,2013-07-03 17:56:00,
2013-07-03 14:01:00,82.9,74.9,30.19,SSW,195,2.0,3.0,77,0.00,,CLR,0.00,VWS V14.01,2013-07-03 18:01:00,
2013-07-03 14:06:00,82.9,75.3,30.19,WSW,246,0.0,5.0,78,0.00,,CLR,0.00,VWS V14.01,2013-07-03 18:06:00,
2013-07-03 14:16:00,82.5,74.9,30.19,SE,146,0.0,6.0,78,0.00,,CLR,0.00,VWS V14.01,2013-07-03 18:16:00,
2013-07-03 14:27:00,82.1,74.9,30.19,WSW,258,1.0,6.0,79,0.00,,CLR,0.00,VWS V14.01,2013-07-03 18:27:00,
2013-07-03 14:32:00,81.9,75.1,30.19,WSW,249,3.0,5.0,80,0.00,,CLR,0.00,VWS V14.01,2013-07-03 18:32:00,
2013-07-03 14:37:00,81.5,74.7,30.18,WSW,246,4.0,11.0,80,0.00,,CLR,0.00,VWS V14.01,2013-07-03 18:37:00,
2013-07-03 14:42:00,81.3,74.9,30.18,South,184,0.0,11.0,81,0.00,,CLR,0.00,VWS V14.01,2013-07-03 18:42:00,
2013-07-03 14:52:00,81.1,75.8,30.18,South,174,0.0,11.0,84,0.00,,CLR,0.00,VWS V14.01,2013-07-03 18:52:00,
2013-07-03 14:57:00,81.1,75.4,30.18,WSW,255,0.0,11.0,83,0.00,,CLR,0.00,VWS V14.01,2013-07-03 18:57:00,
2013-07-03 15:02:00,81.1,75.4,30.18,SSE,157,1.0,3.0,83,0.00,,CLR,0.00,VWS V14.01,2013-07-03 19:02:00,
2013-07-03 15:12:00,80.9,74.9,30.17,SSE,161,0.0,7.0,82,0.00,,CLR,0.00,VWS V14.01,2013-07-03 19:12:00,
2013-07-03 15:22:00,80.7,74.7,30.17,WNW,290,1.0,7.0,82,0.00,,CLR,0.00,VWS V14.01,2013-07-03 19:22:00,
2013-07-03 15:27:00,80.5,74.5,30.17,WSW,247,4.0,7.0,82,0.00,,CLR,0.00,VWS V14.01,2013-07-03 19:27:00,
2013-07-03 15:32:00,80.3,74.3,30.17,WSW,248,5.0,5.0,82,0.00,,CLR,0.00,VWS V14.01,2013-07-03 19:32:00,
2013-07-03 15:37:00,80.2,74.6,30.17,West,265,1.0,7.0,83,0.00,,CLR,0.00,VWS V14.01,2013-07-03 19:37:00,
2013-07-03 15:53:00,79.8,74.5,30.17,WSW,254,2.0,7.0,84,0.00,,CLR,0.00,VWS V14.01,2013-07-03 19:53:00,
2013-07-03 15:58:00,79.6,74.3,30.16,SW,225,2.0,7.0,84,0.00,,CLR,0.00,VWS V14.01,2013-07-03 19:58:00,
2013-07-03 16:03:00,79.4,74.5,30.17,SW,223,1.0,2.0,85,0.00,,CLR,0.00,VWS V14.01,2013-07-03 20:03:00,
2013-07-03 16:08:00,79.2,74.3,30.16,WSW,246,1.0,4.0,85,0.00,,CLR,0.00,VWS V14.01,2013-07-03 20:08:00,
2013-07-03 16:13:00,79.0,74.1,30.16,SE,144,0.0,4.0,85,0.00,,CLR,0.00,VWS V14.01,2013-07-03 20:13:00,
2013-07-03 16:18:00,78.7,74.2,30.16,ESE,116,2.0,4.0,86,0.00,,CLR,0.00,VWS V14.01,2013-07-03 20:18:00,
2013-07-03 16:23:00,78.6,74.1,30.17,SW,231,1.0,7.0,86,0.00,,CLR,0.00,VWS V14.01,2013-07-03 20:23:00,
2013-07-03 16:28:00,78.4,73.9,30.17,West,267,3.0,7.0,86,0.00,,CLR,0.00,VWS V14.01,2013-07-03 20:28:00,
2013-07-03 16:33:00,78.0,73.5,30.17,West,267,0.0,9.0,86,0.00,,CLR,0.00,VWS V14.01,2013-07-03 20:33:00,
2013-07-03 16:38:00,77.8,73.6,30.16,WNW,297,0.0,9.0,87,0.00,,CLR,0.00,VWS V14.01,2013-07-03 20:38:00,
2013-07-03 16:43:00,77.7,73.9,30.16,West,277,0.0,9.0,88,0.00,,CLR,0.00,VWS V14.01,2013-07-03 20:43:00,
2013-07-03 16:58:00,77.8,74.0,30.16,West,260,6.0,9.0,88,0.00,,CLR,0.00,VWS V14.01,2013-07-03 20:58:00,
2013-07-03 17:03:00,77.8,74.0,30.15,West,271,1.0,5.0,88,0.00,,CLR,0.00,VWS V14.01,2013-07-03 21:03:00,
2013-07-03 17:08:00,77.8,74.0,30.15,WSW,247,2.0,7.0,88,0.00,,CLR,0.00,VWS V14.01,2013-07-03 21:08:00,
2013-07-03 17:13:00,77.8,74.0,30.16,West,269,1.0,7.0,88,0.00,,CLR,0.00,VWS V14.01,2013-07-03 21:13:00,
2013-07-03 17:23:00,77.8,74.0,30.16,SW,217,2.0,7.0,88,0.00,,CLR,0.00,VWS V14.01,2013-07-03 21:23:00,
2013-07-03 17:28:00,77.8,74.0,30.15,WSW,240,1.0,7.0,88,0.00,,CLR,0.00,VWS V14.01,2013-07-03 21:28:00,
2013-07-03 17:33:00,77.8,74.0,30.15,WSW,240,0.0,3.0,88,0.00,,CLR,0.00,VWS V14.01,2013-07-03 21:33:00,
2013-07-03 17:38:00,77.8,74.0,30.15,WSW,256,3.0,5.0,88,0.00,,CLR,0.00,VWS V14.01,2013-07-03 21:38:00,
2013-07-03 17:49:00,77.5,73.7,30.16,NE,53,1.0,9.0,88,0.00,,CLR,0.00,VWS V14.01,2013-07-03 21:49:00,
2013-07-03 17:59:00,77.4,73.6,30.16,WSW,245,2.0,9.0,88,0.00,,CLR,0.00,VWS V14.01,2013-07-03 21:59:00,
2013-07-03 18:04:00,77.2,73.4,30.16,SW,233,1.0,6.0,88,0.00,,,0.00,VWS V14.01,2013-07-03 22:04:00,
2013-07-03 18:09:00,77.0,73.5,30.16,WSW,254,2.0,6.0,89,0.00,,,0.00,VWS V14.01,2013-07-03 22:09:00,
2013-07-03 18:14:00,76.8,73.3,30.16,WSW,243,2.0,6.0,89,0.00,,,0.00,VWS V14.01,2013-07-03 22:14:00,
2013-07-03 18:19:00,76.7,73.2,30.16,WSW,244,0.0,7.0,89,0.00,,,0.00,VWS V14.01,2013-07-03 22:19:00,
2013-07-03 18:24:00,76.6,73.1,30.16,West,268,0.0,7.0,89,0.00,,,0.00,VWS V14.01,2013-07-03 22:24:00,
2013-07-03 18:29:00,76.6,73.4,30.16,SW,233,0.0,7.0,90,0.00,,,0.00,VWS V14.01,2013-07-03 22:29:00,
2013-07-03 18:39:00,76.4,73.2,30.16,WSW,237,1.0,8.0,90,0.00,,,0.00,VWS V14.01,2013-07-03 22:39:00,
2013-07-03 18:49:00,76.4,73.6,30.17,West,263,9.0,9.0,91,0.00,,,0.00,VWS V14.01,2013-07-03 22:49:00,
2013-07-03 18:59:00,76.5,73.7,30.16,SSW,211,0.0,9.0,91,0.00,,,0.00,VWS V14.01,2013-07-03 22:59:00,
2013-07-03 19:04:00,76.6,73.8,30.16,SW,219,0.0,4.0,91,0.00,,,0.00,VWS V14.01,2013-07-03 23:04:00,
2013-07-03 19:09:00,76.6,73.8,30.16,West,273,1.0,14.0,91,0.00,,,0.00,VWS V14.01,2013-07-03 23:09:00,
2013-07-03 19:14:00,76.6,73.8,30.16,WSW,248,4.0,14.0,91,0.00,,,0.00,VWS V14.01,2013-07-03 23:14:00,
2013-07-03 19:25:00,76.6,73.8,30.16,WNW,282,2.0,14.0,91,0.00,,,0.00,VWS V14.01,2013-07-03 23:25:00,
2013-07-03 19:30:00,76.5,73.7,30.16,SSW,205,2.0,2.0,91,0.00,,,0.00,VWS V14.01,2013-07-03 23:30:00,
2013-07-03 19:40:00,76.4,73.6,30.16,WSW,242,1.0,6.0,91,0.00,,,0.00,VWS V14.01,2013-07-03 23:40:00,
2013-07-03 19:45:00,76.3,73.5,30.16,WSW,254,5.0,7.0,91,0.00,,,0.00,VWS V14.01,2013-07-03 23:45:00,
2013-07-03 19:50:00,76.3,73.5,30.16,SW,230,1.0,7.0,91,0.00,,,0.00,VWS V14.01,2013-07-03 23:50:00,
2013-07-03 19:55:00,76.2,73.4,30.16,SW,221,4.0,7.0,91,0.00,,,0.00,VWS V14.01,2013-07-03 23:55:00,
2013-07-03 20:00:00,76.1,73.3,30.17,WSW,244,1.0,1.0,91,0.00,,,0.00,VWS V14.01,2013-07-04 00:00:00,
2013-07-03 20:05:00,76.0,73.2,30.17,West,275,1.0,6.0,91,0.00,,,0.00,VWS V14.01,2013-07-04 00:05:00,
2013-07-03 20:10:00,76.0,73.2,30.17,SW,228,1.0,6.0,91,0.00,,,0.00,VWS V14.01,2013-07-04 00:10:00,
2013-07-03 20:15:00,75.8,73.0,30.17,WSW,238,1.0,6.0,91,0.00,,,0.00,VWS V14.01,2013-07-04 00:15:00,
2013-07-03 20:20:00,75.7,72.9,30.18,WSW,238,0.0,9.0,91,0.00,,,0.00,VWS V14.01,2013-07-04 00:20:00,
2013-07-03 20:29:00,75.6,73.1,30.18,WSW,247,0.0,9.0,92,0.00,,,0.00,VWS V14.01,2013-07-04 00:29:00,
2013-07-03 20:35:00,75.6,73.1,30.18,WSW,247,0.0,9.0,92,0.00,,,0.00,VWS V14.01,2013-07-04 00:35:00,
2013-07-03 20:45:00,75.5,73.0,30.17,WSW,248,0.0,9.0,92,0.00,,,0.00,VWS V14.01,2013-07-04 00:45:00,
2013-07-03 20:50:00,75.5,73.0,30.18,West,263,2.0,9.0,92,0.00,,,0.00,VWS V14.01,2013-07-04 00:50:00,
2013-07-03 20:55:00,75.4,72.9,30.18,WNW,297,1.0,9.0,92,0.00,,,0.00,VWS V14.01,2013-07-04 00:55:00,
2013-07-03 21:00:00,75.4,72.9,30.18,West,267,0.0,1.0,92,0.00,,BKN011,0.00,VWS V14.01,2013-07-04 01:00:00,
2013-07-03 21:05:00,75.4,72.9,30.18,SSW,209,0.0,5.0,92,0.00,,BKN011,0.00,VWS V14.01,2013-07-04 01:05:00,
2013-07-03 21:16:00,75.2,72.7,30.18,ENE,65,0.0,5.0,92,0.00,,BKN011,0.00,VWS V14.01,2013-07-04 01:16:00,
2013-07-03 21:21:00,75.1,72.6,30.18,ENE,65,0.0,5.0,92,0.00,,BKN011,0.00,VWS V14.01,2013-07-04 01:21:00,
2013-07-03 21:26:00,75.1,72.6,30.18,West,261,0.0,5.0,92,0.00,,BKN011,0.00,VWS V14.01,2013-07-04 01:26:00,
2013-07-03 21:36:00,74.9,72.4,30.19,West,268,0.0,1.0,92,0.00,,BKN011,0.00,VWS V14.01,2013-07-04 01:36:00,
2013-07-03 21:46:00,74.9,72.7,30.19,WSW,245,0.0,6.0,93,0.00,,BKN011,0.00,VWS V14.01,2013-07-04 01:46:00,
2013-07-03 21:51:00,74.8,72.6,30.19,West,275,0.0,6.0,93,0.00,,BKN011,0.00,VWS V14.01,2013-07-04 01:51:00,
2013-07-03 21:56:00,74.8,72.6,30.19,North,351,0.0,6.0,93,0.00,,BKN011,0.00,VWS V14.01,2013-07-04 01:56:00,
2013-07-03 22:06:00,74.7,72.6,30.19,West,277,0.0,4.0,93,0.00,,BKN011,0.00,VWS V14.01,2013-07-04 02:06:00,
2013-07-03 22:11:00,74.7,72.6,30.19,WNW,300,0.0,4.0,93,0.00,,BKN011,0.00,VWS V14.01,2013-07-04 02:11:00,
2013-07-03 22:16:00,74.7,72.6,30.19,WSW,248,1.0,5.0,93,0.00,,FEW085,0.00,VWS V14.01,2013-07-04 02:16:00,
2013-07-03 22:21:00,74.7,72.6,30.19,WSW,248,1.0,6.0,93,0.00,,FEW085,0.00,VWS V14.01,2013-07-04 02:21:00,
2013-07-03 22:26:00,74.8,72.6,30.19,SW,215,2.0,6.0,93,0.00,,FEW085,0.00,VWS V14.01,2013-07-04 02:26:00,
2013-07-03 22:31:00,74.8,72.6,30.19,West,265,0.0,5.0,93,0.00,,FEW085,0.00,VWS V14.01,2013-07-04 02:31:00,
2013-07-03 22:36:00,74.8,72.6,30.19,West,263,0.0,5.0,93,0.00,,FEW085,0.00,VWS V14.01,2013-07-04 02:36:00,
2013-07-03 22:47:00,74.8,72.6,30.18,East,101,0.0,6.0,93,0.01,,FEW085,0.01,VWS V14.01,2013-07-04 02:47:00,
2013-07-03 22:52:00,74.8,72.6,30.18,West,268,1.0,6.0,93,0.01,,FEW085,0.01,VWS V14.01,2013-07-04 02:52:00,
2013-07-03 22:57:00,74.8,73.0,30.18,West,268,0.0,6.0,94,0.01,,FEW085,0.01,VWS V14.01,2013-07-04 02:57:00,
2013-07-03 23:02:00,74.8,73.0,30.18,West,267,0.0,6.0,94,0.01,,,0.01,VWS V14.01,2013-07-04 03:02:00,
2013-07-03 23:07:00,74.7,72.9,30.17,East,83,1.0,6.0,94,0.01,,,0.01,VWS V14.01,2013-07-04 03:07:00,
2013-07-03 23:12:00,74.7,72.9,30.18,East,99,0.0,6.0,94,0.01,,,0.01,VWS V14.01,2013-07-04 03:12:00,
2013-07-03 23:17:00,74.7,72.9,30.17,WSW,256,1.0,10.0,94,0.01,,,0.01,VWS V14.01,2013-07-04 03:17:00,
2013-07-03 23:22:00,74.7,72.9,30.17,WSW,249,1.0,10.0,94,0.01,,,0.01,VWS V14.01,2013-07-04 03:22:00,
2013-07-03 23:27:00,74.7,72.9,30.18,NW,309,1.0,10.0,94,0.01,,,0.01,VWS V14.01,2013-07-04 03:27:00,
2013-07-03 23:32:00,74.6,72.8,30.18,West,259,1.0,4.0,94,0.01,,,0.01,VWS V14.01,2013-07-04 03:32:00,
2013-07-03 23:37:00,74.6,72.8,30.18,SW,232,0.0,5.0,94,0.01,,,0.01,VWS V14.01,2013-07-04 03:37:00,
2013-07-03 23:42:00,74.6,73.1,30.18,SW,231,0.0,5.0,95,0.01,,,0.01,VWS V14.01,2013-07-04 03:42:00,
2013-07-03 23:47:00,74.5,73.0,30.18,SW,231,0.0,5.0,95,0.01,,,0.01,VWS V14.01,2013-07-04 03:47:00,
2013-07-03 23:57:00,74.4,72.9,30.18,WSW,241,0.0,5.0,95,0.01,,,0.01,VWS V14.01,2013-07-04 03:57:00,